createdAt,value
2018-02-03T00:01:45.935Z,5.43
2018-02-03T00:04:14.123Z,5.43
2018-02-03T00:06:42.289Z,6.87
2018-02-03T00:09:10.461Z,5.97
2018-02-03T00:11:38.685Z,5.07
2018-02-03T00:14:06.853Z,4.93
2018-02-03T00:16:35.031Z,5.13
2018-02-03T00:19:03.198Z,5.53
2018-02-03T00:21:31.383Z,5.80
2018-02-03T00:23:59.774Z,5.50
2018-02-03T00:26:27.963Z,4.83
2018-02-03T00:28:56.129Z,5.10
2018-02-03T00:31:24.302Z,4.73
2018-02-03T00:33:52.476Z,4.57
2018-02-03T00:36:20.660Z,4.83
2018-02-03T00:38:48.852Z,5.20
2018-02-03T00:41:17.069Z,4.60
2018-02-03T00:43:46.026Z,4.50
2018-02-03T00:46:14.210Z,5.30
2018-02-03T00:48:42.456Z,5.03
2018-02-03T00:51:10.646Z,4.97
2018-02-03T00:53:38.813Z,4.90
2018-02-03T00:56:06.998Z,5.10
2018-02-03T00:58:35.166Z,5.13
2018-02-03T01:01:03.384Z,4.83
2018-02-03T01:03:31.576Z,6.30
2018-02-03T01:05:59.772Z,5.00
2018-02-03T01:08:27.969Z,5.63
2018-02-03T01:10:56.144Z,5.90
2018-02-03T01:13:24.385Z,5.83
2018-02-03T01:15:52.582Z,4.73
2018-02-03T01:18:20.770Z,5.73
2018-02-03T01:20:49.753Z,5.40
2018-02-03T01:23:17.937Z,5.20
2018-02-03T01:25:46.167Z,4.90
2018-02-03T01:28:14.362Z,4.57
2018-02-03T01:30:42.557Z,4.67
2018-02-03T01:33:11.537Z,4.07
2018-02-03T01:35:39.724Z,4.33
2018-02-03T01:38:07.955Z,4.13
2018-02-03T01:40:36.122Z,4.97
2018-02-03T01:43:04.301Z,4.07
2018-02-03T01:45:32.527Z,3.87
2018-02-03T01:48:00.717Z,4.37
2018-02-03T01:50:28.913Z,4.40
2018-02-03T01:52:57.098Z,4.53
2018-02-03T01:55:26.045Z,4.70
2018-02-03T01:57:54.252Z,5.50
2018-02-03T02:00:22.428Z,5.67
2018-02-03T02:02:50.629Z,4.87
2018-02-03T02:05:19.625Z,5.23
2018-02-03T02:07:48.563Z,5.20
2018-02-03T02:10:16.746Z,5.93
2018-02-03T02:12:45.736Z,5.73
2018-02-03T02:15:13.938Z,5.90
2018-02-03T02:17:43.622Z,6.43
2018-02-03T02:20:12.018Z,6.30
2018-02-03T02:22:40.252Z,6.30
2018-02-03T02:25:08.430Z,6.30
2018-02-03T02:27:36.638Z,6.60
2018-02-03T02:30:04.805Z,7.20
2018-02-03T02:32:32.992Z,7.50
2018-02-03T02:35:01.166Z,6.57
2018-02-03T02:37:29.345Z,7.13
2018-02-03T02:39:57.630Z,6.83
2018-02-03T02:42:25.846Z,6.67
2018-02-03T02:44:54.028Z,5.50
2018-02-03T02:47:22.214Z,6.20
2018-02-03T02:49:50.408Z,5.90
2018-02-03T02:52:18.634Z,6.43
2018-02-03T02:54:47.639Z,5.60
2018-02-03T02:57:15.934Z,4.93
2018-02-03T02:59:44.204Z,4.77
2018-02-03T03:02:12.395Z,5.43
2018-02-03T03:04:40.603Z,5.20
2018-02-03T03:07:08.780Z,4.43
2018-02-03T03:09:36.971Z,4.53
2018-02-03T03:12:05.176Z,4.90
2018-02-03T03:14:33.327Z,4.73
2018-02-03T03:17:02.301Z,4.90
2018-02-03T03:19:30.471Z,4.10
2018-02-03T03:21:58.643Z,4.03
2018-02-03T03:24:27.607Z,3.90
2018-02-03T03:26:56.057Z,3.60
2018-02-03T03:29:24.269Z,4.60
2018-02-03T03:31:52.435Z,4.90
2018-02-03T03:34:20.615Z,4.57
2018-02-03T03:36:48.849Z,4.00
2018-02-03T03:39:17.783Z,4.73
2018-02-03T03:41:46.046Z,4.27
2018-02-03T03:44:14.209Z,4.70
2018-02-03T03:46:42.375Z,4.57
2018-02-03T03:49:11.338Z,5.17
2018-02-03T03:51:39.520Z,4.73
2018-02-03T03:54:09.174Z,4.57
2018-02-03T03:56:37.363Z,4.43
2018-02-03T03:59:05.626Z,3.90
2018-02-03T04:01:33.839Z,3.83
2018-02-03T04:04:02.008Z,4.30
2018-02-03T04:06:30.182Z,4.80
2018-02-03T04:08:58.362Z,4.00
2018-02-03T04:11:26.542Z,4.70
2018-02-03T04:13:54.726Z,4.33
2018-02-03T04:16:22.918Z,4.13
2018-02-03T04:18:51.856Z,4.17
2018-02-03T04:21:20.800Z,3.57
2018-02-03T04:23:49.742Z,3.47
2018-02-03T04:26:18.010Z,3.17
2018-02-03T04:28:46.187Z,3.97
2018-02-03T04:31:14.357Z,8.03
2018-02-03T04:33:42.546Z,3.87
2018-02-03T04:36:10.698Z,3.87
2018-02-03T04:38:38.897Z,3.30
2018-02-03T04:41:07.060Z,4.77
2018-02-03T04:43:35.234Z,4.20
2018-02-03T04:46:03.410Z,5.80
2018-02-03T04:48:31.593Z,5.40
2018-02-03T04:50:59.793Z,5.20
2018-02-03T04:53:27.963Z,5.33
2018-02-03T04:55:56.191Z,4.80
2018-02-03T04:58:25.139Z,4.57
2018-02-03T05:00:53.331Z,6.20
2018-02-03T05:03:21.533Z,6.50
2018-02-03T05:05:50.475Z,7.23
2018-02-03T05:08:18.724Z,6.50
2018-02-03T05:10:46.949Z,5.80
2018-02-03T05:13:15.099Z,5.60
2018-02-03T05:15:43.323Z,5.83
2018-02-03T05:18:12.267Z,6.00
2018-02-03T05:20:40.471Z,6.90
2018-02-03T05:23:08.633Z,5.37
2018-02-03T05:25:36.824Z,4.67
2018-02-03T05:28:05.814Z,4.90
2018-02-03T05:30:34.757Z,4.60
2018-02-03T05:33:02.930Z,4.20
2018-02-03T05:35:31.334Z,3.60
2018-02-03T05:37:59.508Z,4.10
2018-02-03T05:40:27.728Z,3.93
2018-02-03T05:42:56.664Z,3.57
2018-02-03T05:45:26.131Z,3.70
2018-02-03T05:47:55.085Z,3.63
2018-02-03T05:50:23.276Z,3.13
2018-02-03T05:52:52.937Z,3.50
2018-02-03T05:55:21.214Z,4.47
2018-02-03T05:57:49.450Z,4.37
2018-02-03T06:00:18.388Z,4.20
2018-02-03T06:02:46.769Z,4.07
2018-02-03T06:05:14.929Z,3.43
2018-02-03T06:07:43.172Z,3.53
2018-02-03T06:10:11.417Z,3.67
2018-02-03T06:12:39.607Z,3.37
2018-02-03T06:15:07.842Z,3.13
2018-02-03T06:17:36.016Z,3.43
2018-02-03T06:20:04.222Z,3.70
2018-02-03T06:22:32.412Z,3.50
2018-02-03T06:25:00.648Z,4.20
2018-02-03T06:27:28.826Z,4.07
2018-02-03T06:29:57.001Z,5.00
2018-02-03T06:32:25.324Z,6.57
2018-02-03T06:34:53.650Z,7.97
2018-02-03T06:37:21.927Z,9.73
2018-02-03T06:39:50.113Z,10.40
2018-02-03T06:42:18.305Z,10.93
2018-02-03T06:44:46.475Z,14.63
2018-02-03T06:47:14.718Z,30.00
2018-02-03T06:49:42.902Z,16.10
2018-02-03T06:52:11.065Z,13.80
2018-02-03T06:54:39.232Z,12.00
2018-02-03T06:57:08.176Z,12.13
2018-02-03T06:59:36.388Z,12.43
2018-02-03T07:02:04.603Z,11.63
2018-02-03T07:04:32.784Z,10.83
2018-02-03T07:07:00.989Z,9.80
2018-02-03T07:09:29.189Z,8.47
2018-02-03T07:11:57.476Z,8.17
2018-02-03T07:14:26.451Z,8.20
2018-02-03T07:16:56.150Z,6.83
2018-02-03T07:19:24.341Z,6.87
2018-02-03T07:21:52.802Z,6.40
2018-02-03T07:24:21.023Z,5.70
2018-02-03T07:26:49.245Z,6.53
2018-02-03T07:29:17.440Z,6.20
2018-02-03T07:31:45.658Z,6.43
2018-02-03T07:34:13.875Z,5.87
2018-02-03T07:36:42.109Z,5.00
2018-02-03T07:39:10.290Z,4.80
2018-02-03T07:41:38.473Z,4.90
2018-02-03T07:44:06.683Z,4.60
2018-02-03T07:46:34.894Z,4.83
2018-02-03T07:49:03.885Z,4.20
2018-02-03T07:51:32.216Z,4.53
2018-02-03T07:54:00.454Z,4.60
2018-02-03T07:56:28.659Z,4.97
2018-02-03T07:58:56.884Z,4.70
2018-02-03T08:01:25.103Z,4.70
2018-02-03T08:03:53.309Z,4.23
2018-02-03T08:06:21.554Z,5.50
2018-02-03T08:08:49.748Z,5.83
2018-02-03T08:11:17.945Z,5.27
2018-02-03T08:13:46.947Z,6.37
2018-02-03T08:16:15.171Z,6.93
2018-02-03T08:18:43.402Z,6.27
2018-02-03T08:21:12.349Z,6.57
2018-02-03T08:23:40.531Z,7.13
2018-02-03T08:26:08.739Z,7.17
2018-02-03T08:28:36.914Z,6.73
2018-02-03T08:31:05.090Z,7.60
2018-02-03T08:33:34.129Z,8.43
2018-02-03T08:36:02.329Z,9.90
2018-02-03T08:38:30.603Z,10.23
2018-02-03T08:40:58.821Z,10.47
2018-02-03T08:43:27.815Z,10.57
2018-02-03T08:45:56.838Z,10.50
2018-02-03T08:48:25.053Z,10.70
2018-02-03T08:50:53.256Z,11.83
2018-02-03T08:53:22.208Z,11.37
2018-02-03T08:55:50.401Z,12.87
2018-02-03T08:58:18.595Z,13.20
2018-02-03T09:00:46.785Z,12.90
2018-02-03T09:03:15.035Z,14.93
2018-02-03T09:05:43.232Z,14.20
2018-02-03T09:08:12.191Z,16.10
2018-02-03T09:10:40.420Z,14.90
2018-02-03T09:13:09.981Z,14.50
2018-02-03T09:15:38.333Z,15.30
2018-02-03T09:18:06.740Z,15.67
2018-02-03T09:20:34.944Z,14.17
2018-02-03T09:23:03.440Z,13.70
2018-02-03T09:25:32.405Z,13.63
2018-02-03T09:28:00.650Z,16.87
2018-02-03T09:30:28.851Z,14.97
2018-02-03T09:32:57.888Z,15.47
2018-02-03T09:35:26.097Z,14.83
2018-02-03T09:37:54.378Z,14.13
2018-02-03T09:40:22.600Z,16.17
2018-02-03T09:42:51.634Z,15.20
2018-02-03T09:45:20.044Z,15.00
2018-02-03T09:47:48.246Z,13.37
2018-02-03T09:50:18.004Z,15.47
2018-02-03T09:52:46.219Z,16.30
2018-02-03T09:55:15.929Z,15.83
2018-02-03T09:57:44.138Z,17.10
2018-02-03T10:00:13.184Z,18.60
2018-02-03T10:02:41.398Z,17.13
2018-02-03T10:05:09.792Z,20.10
2018-02-03T10:07:39.312Z,19.00
2018-02-03T10:10:07.542Z,19.27
2018-02-03T10:12:35.761Z,16.30
2018-02-03T10:15:03.965Z,18.63
2018-02-03T10:17:32.166Z,18.97
2018-02-03T10:20:00.387Z,19.20
2018-02-03T10:22:28.612Z,20.03
2018-02-03T10:24:56.826Z,21.23
2018-02-03T10:27:25.816Z,20.43
2018-02-03T10:29:54.856Z,21.33
2018-02-03T10:32:23.055Z,18.73
2018-02-03T10:34:51.291Z,18.83
2018-02-03T10:37:19.487Z,18.07
2018-02-03T10:39:47.683Z,19.03
2018-02-03T10:42:15.921Z,17.63
2018-02-03T10:44:44.102Z,18.40
2018-02-03T10:47:12.301Z,20.50
2018-02-03T10:49:40.542Z,19.03
2018-02-03T10:52:08.841Z,25.03
2018-02-03T10:54:37.085Z,24.13
2018-02-03T10:57:06.037Z,19.37
2018-02-03T10:59:34.222Z,23.20
2018-02-03T11:02:03.916Z,21.23
2018-02-03T11:04:32.118Z,19.43
2018-02-03T11:07:01.101Z,21.57
2018-02-03T11:09:29.297Z,21.63
2018-02-03T11:11:58.239Z,21.30
2018-02-03T11:14:26.475Z,23.50
2018-02-03T11:16:55.477Z,23.90
2018-02-03T11:19:23.722Z,24.67
2018-02-03T11:21:51.933Z,25.03
2018-02-03T11:24:20.144Z,28.03
2018-02-03T11:26:48.558Z,26.43
2018-02-03T11:29:17.523Z,28.17
2018-02-03T11:31:45.743Z,30.17
2018-02-03T11:34:14.706Z,27.77
2018-02-03T11:36:43.683Z,24.77
2018-02-03T11:39:11.926Z,25.70
2018-02-03T11:41:40.838Z,26.33
2018-02-03T11:44:09.155Z,24.77
2018-02-03T11:46:37.434Z,29.37
2018-02-03T11:49:07.206Z,27.60
2018-02-03T11:51:35.398Z,20.73
2018-02-03T11:54:03.594Z,22.30
2018-02-03T11:56:31.820Z,20.13
2018-02-03T11:59:00.014Z,25.67
2018-02-03T12:01:28.271Z,50.73
2018-02-03T12:03:56.541Z,25.17
2018-02-03T12:06:24.750Z,24.50
2018-02-03T12:08:53.118Z,38.73
2018-02-03T12:11:21.385Z,28.17
2018-02-03T12:13:49.625Z,27.03
2018-02-03T12:16:18.592Z,21.73
2018-02-03T12:18:46.779Z,22.03
2018-02-03T12:21:16.459Z,28.93
2018-02-03T12:23:44.626Z,28.80
2018-02-03T12:26:12.876Z,22.10
2018-02-03T12:28:41.060Z,17.57
2018-02-03T12:31:09.244Z,21.43
2018-02-03T12:33:37.432Z,18.27
2018-02-03T12:36:06.717Z,23.63
2018-02-03T12:38:34.959Z,34.70
2018-02-03T12:41:03.159Z,46.57
2018-02-03T12:43:31.377Z,33.80
2018-02-03T12:45:59.573Z,29.40
2018-02-03T12:48:27.763Z,37.93
2018-02-03T12:50:56.739Z,47.30
2018-02-03T12:53:25.701Z,46.93
2018-02-03T12:55:53.893Z,33.57
2018-02-03T12:58:22.073Z,30.73
2018-02-03T13:00:51.814Z,31.47
2018-02-03T13:03:20.822Z,19.33
2018-02-03T13:05:49.025Z,19.33
2018-02-03T13:08:17.230Z,21.17
2018-02-03T13:10:45.410Z,19.20
2018-02-03T13:13:13.620Z,16.97
2018-02-03T13:15:42.600Z,16.50
2018-02-03T13:18:11.550Z,18.70
2018-02-03T13:20:39.728Z,16.43
2018-02-03T13:23:07.918Z,12.97
2018-02-03T13:25:36.098Z,6.17
2018-02-03T13:28:05.807Z,3.47
2018-02-03T13:30:34.006Z,2.83
2018-02-03T13:33:02.977Z,3.00
2018-02-03T13:35:31.210Z,3.00
2018-02-03T13:37:59.415Z,3.30
2018-02-03T13:40:27.630Z,3.53
2018-02-03T13:42:56.666Z,2.70
2018-02-03T13:45:24.839Z,3.87
2018-02-03T13:47:53.022Z,3.10
2018-02-03T13:50:21.195Z,3.17
2018-02-03T13:52:49.558Z,3.40
2018-02-03T13:55:17.742Z,3.00
2018-02-03T13:57:45.911Z,2.40
2018-02-03T14:00:14.111Z,2.47
2018-02-03T14:02:42.307Z,2.33
2018-02-03T14:05:10.495Z,2.37
2018-02-03T14:07:38.720Z,2.87
2018-02-03T14:10:06.900Z,3.00
2018-02-03T14:12:35.098Z,3.20
2018-02-03T14:15:03.298Z,3.50
2018-02-03T14:17:31.484Z,3.00
2018-02-03T14:20:00.468Z,3.20
2018-02-03T14:22:28.639Z,3.27
2018-02-03T14:25:03.371Z,3.10
2018-02-03T14:27:32.378Z,3.53
2018-02-03T14:30:01.340Z,3.43
2018-02-03T14:32:29.560Z,2.97
2018-02-03T14:34:57.857Z,3.30
2018-02-03T14:37:26.064Z,3.30
2018-02-03T14:39:54.288Z,3.27
2018-02-03T14:42:23.231Z,3.43
2018-02-03T14:44:51.449Z,3.03
2018-02-03T14:47:20.402Z,1.90
2018-02-03T14:49:48.650Z,2.37
2018-02-03T14:52:17.106Z,2.30
2018-02-03T14:54:45.732Z,2.63
2018-02-03T14:57:13.947Z,2.23
2018-02-03T14:59:42.919Z,2.60
2018-02-03T15:02:11.144Z,2.50
2018-02-03T15:04:39.318Z,2.40
2018-02-03T15:07:07.559Z,2.40
2018-02-03T15:09:36.528Z,2.40
2018-02-03T15:12:04.722Z,2.70
2018-02-03T15:14:33.114Z,2.60
2018-02-03T15:17:01.419Z,2.97
2018-02-03T15:19:29.785Z,2.70
2018-02-03T15:21:58.765Z,2.40
2018-02-03T15:24:27.751Z,2.60
2018-02-03T15:26:55.992Z,2.50
2018-02-03T15:29:24.315Z,2.90
2018-02-03T15:31:52.516Z,3.17
2018-02-03T15:34:20.712Z,2.70
2018-02-03T15:36:48.914Z,2.70
2018-02-03T15:39:17.117Z,2.27
2018-02-03T15:41:45.299Z,2.50
2018-02-03T15:44:13.544Z,17.37
2018-02-03T15:46:41.771Z,5.63
2018-02-03T15:49:09.955Z,3.87
2018-02-03T15:51:38.170Z,9.03
2018-02-03T15:54:06.395Z,7.07
2018-02-03T15:56:34.676Z,24.20
2018-02-03T15:59:02.870Z,13.70
2018-02-03T16:01:31.103Z,4.53
2018-02-03T16:04:00.070Z,3.13
2018-02-03T16:06:28.274Z,3.80
2018-02-03T16:08:57.240Z,2.80
2018-02-03T16:11:25.543Z,2.90
2018-02-03T16:13:53.728Z,2.43
2018-02-03T16:16:22.737Z,2.80
2018-02-03T16:18:51.035Z,3.20
2018-02-03T16:21:19.243Z,3.27
2018-02-03T16:23:47.485Z,3.10
2018-02-03T16:26:15.712Z,2.63
2018-02-03T16:28:43.942Z,2.73
2018-02-03T16:31:12.148Z,2.87
2018-02-03T16:33:40.354Z,2.83
2018-02-03T16:36:09.319Z,5.07
2018-02-03T16:38:37.513Z,3.30
2018-02-03T16:41:05.738Z,3.20
2018-02-03T16:43:33.925Z,3.30
2018-02-03T16:46:02.110Z,3.40
2018-02-03T16:48:30.292Z,4.00
2018-02-03T16:50:58.536Z,3.60
2018-02-03T16:53:26.753Z,3.60
2018-02-03T16:55:54.946Z,4.17
2018-02-03T16:58:23.127Z,3.73
2018-02-03T17:00:52.093Z,5.30
2018-02-03T17:03:20.417Z,10.37
2018-02-03T17:05:48.626Z,13.00
2018-02-03T17:08:16.846Z,11.23
2018-02-03T17:10:45.042Z,7.83
2018-02-03T17:13:13.955Z,5.77
2018-02-03T17:15:42.225Z,4.80
2018-02-03T17:18:10.440Z,3.90
2018-02-03T17:20:38.994Z,4.60
2018-02-03T17:23:07.190Z,4.30
2018-02-03T17:25:35.401Z,4.30
2018-02-03T17:28:04.542Z,7.20
2018-02-03T17:30:32.734Z,5.93
2018-02-03T17:33:00.981Z,5.00
2018-02-03T17:35:29.188Z,5.00
2018-02-03T17:38:03.104Z,5.07
2018-02-03T17:40:32.115Z,4.87
2018-02-03T17:43:00.277Z,5.13
2018-02-03T17:45:34.124Z,5.03
2018-02-03T17:48:03.120Z,5.17
2018-02-03T17:50:32.753Z,5.20
2018-02-03T17:53:01.074Z,5.03
2018-02-03T17:55:35.203Z,4.97
2018-02-03T17:58:03.414Z,6.60
2018-02-03T18:00:31.587Z,10.87
2018-02-03T18:02:59.841Z,8.43
2018-02-03T18:05:28.846Z,7.10
2018-02-03T18:07:57.777Z,6.67
2018-02-03T18:10:26.030Z,6.00
2018-02-03T18:12:54.214Z,6.90
2018-02-03T18:15:22.656Z,8.37
2018-02-03T18:17:50.873Z,7.77
2018-02-03T18:20:19.151Z,6.67
2018-02-03T18:22:47.380Z,5.97
2018-02-03T18:25:15.575Z,6.73
2018-02-03T18:27:44.791Z,6.90
2018-02-03T18:30:13.024Z,6.97
2018-02-03T18:32:41.302Z,8.90
2018-02-03T18:35:09.465Z,7.83
2018-02-03T18:37:37.710Z,7.70
2018-02-03T18:40:05.991Z,10.40
2018-02-03T18:42:34.187Z,9.63
2018-02-03T18:45:02.605Z,8.93
2018-02-03T18:47:31.554Z,8.40
2018-02-03T18:49:59.762Z,8.43
2018-02-03T18:52:29.494Z,12.33
2018-02-03T18:54:58.445Z,10.30
2018-02-03T18:57:26.636Z,10.70
2018-02-03T18:59:54.819Z,8.67
2018-02-03T19:02:23.038Z,11.73
2018-02-03T19:04:54.817Z,11.57
2018-02-03T19:07:23.031Z,13.53
2018-02-03T19:09:51.250Z,17.07
2018-02-03T19:12:20.370Z,16.57
2018-02-03T19:14:48.581Z,20.70
2018-02-03T19:17:17.592Z,18.67
2018-02-03T19:19:46.066Z,18.47
2018-02-03T19:22:15.146Z,18.83
2018-02-03T19:24:43.435Z,17.33
2018-02-03T19:27:12.297Z,20.20
2018-02-03T19:29:40.523Z,21.90
2018-02-03T19:32:09.493Z,20.43
2018-02-03T19:34:38.481Z,23.70
2018-02-03T19:37:06.940Z,27.10
2018-02-03T19:39:35.133Z,25.60
2018-02-03T19:42:03.393Z,25.40
2018-02-03T19:44:31.609Z,24.60
2018-02-03T19:47:00.590Z,23.03
2018-02-03T19:49:30.338Z,22.90
2018-02-03T19:51:58.622Z,18.50
2018-02-03T19:54:26.922Z,20.67
2018-02-03T19:56:55.163Z,21.70
2018-02-03T19:59:23.388Z,21.07
2018-02-03T20:01:51.584Z,20.50
2018-02-03T20:04:20.550Z,19.97
2018-02-03T20:06:48.780Z,21.00
2018-02-03T20:09:16.992Z,21.53
2018-02-03T20:11:45.961Z,17.20
2018-02-03T20:14:14.170Z,18.20
2018-02-03T20:16:42.393Z,18.13
2018-02-03T20:19:11.381Z,20.63
2018-02-03T20:21:40.346Z,21.07
2018-02-03T20:24:08.535Z,18.53
2018-02-03T20:26:36.771Z,19.53
2018-02-03T20:29:05.011Z,20.87
2018-02-03T20:31:33.217Z,20.23
2018-02-03T20:34:02.313Z,25.07
2018-02-03T20:36:30.524Z,23.87
2018-02-03T20:38:58.745Z,23.47
2018-02-03T20:41:26.981Z,25.70
2018-02-03T20:43:55.195Z,23.03
2018-02-03T20:46:23.419Z,23.77
2018-02-03T20:48:51.655Z,21.57
2018-02-03T20:51:19.831Z,22.87
2018-02-03T20:53:48.049Z,23.87
2018-02-03T20:56:16.291Z,21.63
2018-02-03T20:58:44.509Z,18.70
2018-02-03T21:01:12.724Z,19.57
2018-02-03T21:03:41.739Z,18.53
2018-02-03T21:06:09.944Z,18.87
2018-02-03T21:08:38.206Z,17.87
2018-02-03T21:11:06.499Z,21.87
2018-02-03T21:13:34.743Z,18.13
2018-02-03T21:16:02.987Z,17.47
2018-02-03T21:18:31.977Z,17.20
2018-02-03T21:21:00.465Z,19.80
2018-02-03T21:23:29.450Z,25.37
2018-02-03T21:25:58.483Z,22.80
2018-02-03T21:28:26.673Z,27.80
2018-02-03T21:30:54.867Z,27.57
2018-02-03T21:33:23.066Z,31.93
2018-02-03T21:35:52.069Z,33.13
2018-02-03T21:38:21.109Z,41.67
2018-02-03T21:40:49.348Z,38.67
2018-02-03T21:43:18.324Z,35.40
2018-02-03T21:45:47.302Z,32.17
2018-02-03T21:48:15.505Z,34.50
2018-02-03T21:50:45.461Z,38.83
2018-02-03T21:53:13.700Z,29.33
2018-02-03T21:55:42.695Z,38.13
2018-02-03T21:58:11.672Z,40.13
2018-02-03T22:00:39.918Z,49.37
2018-02-03T22:03:08.128Z,50.87
2018-02-03T22:05:36.428Z,49.57
2018-02-03T22:08:05.416Z,54.17
2018-02-03T22:10:34.462Z,51.70
2018-02-03T22:13:02.690Z,50.23
2018-02-03T22:15:31.753Z,51.67
2018-02-03T22:17:59.962Z,44.93
2018-02-03T22:20:28.185Z,48.63
2018-02-03T22:22:56.399Z,45.37
2018-02-03T22:25:25.392Z,43.27
2018-02-03T22:27:53.732Z,42.87
2018-02-03T22:30:21.944Z,39.10
2018-02-03T22:32:50.146Z,47.60
2018-02-03T22:35:19.250Z,42.43
2018-02-03T22:37:47.462Z,48.13
2018-02-03T22:40:15.907Z,47.63
2018-02-03T22:42:44.132Z,48.17
2018-02-03T22:45:12.328Z,48.17
2018-02-03T22:47:40.524Z,47.50
2018-02-03T22:50:08.719Z,47.67
2018-02-03T22:52:36.894Z,46.67
2018-02-03T22:55:05.093Z,45.10
2018-02-03T22:57:33.304Z,42.60
2018-02-03T23:00:02.281Z,39.70
2018-02-03T23:02:36.251Z,36.63
2018-02-03T23:05:04.451Z,30.27
2018-02-03T23:07:32.617Z,28.70
2018-02-03T23:10:00.815Z,27.37
2018-02-03T23:12:29.015Z,27.00
2018-02-03T23:14:57.252Z,26.57
2018-02-03T23:17:25.428Z,24.37
2018-02-03T23:19:53.597Z,21.80
2018-02-03T23:22:21.815Z,30.90
2018-02-03T23:24:49.998Z,36.87
2018-02-03T23:27:18.967Z,37.73
2018-02-03T23:29:47.942Z,38.33
2018-02-03T23:32:16.140Z,36.37
2018-02-03T23:34:44.315Z,31.47
2018-02-03T23:37:12.522Z,31.30
2018-02-03T23:39:40.759Z,28.53
2018-02-03T23:42:08.937Z,27.97
2018-02-03T23:44:37.129Z,29.00
2018-02-03T23:47:06.062Z,29.83
2018-02-03T23:49:34.248Z,30.37
2018-02-03T23:52:02.477Z,26.67
2018-02-03T23:54:31.411Z,24.87
2018-02-03T23:56:59.608Z,23.17
2018-02-03T23:59:27.822Z,22.50
